createdAt,value
2017-10-01T00:01:40.848Z,8.32
2017-10-01T00:04:10.406Z,8.52
2017-10-01T00:06:40.221Z,8.75
2017-10-01T00:09:10.009Z,9.13
2017-10-01T00:11:39.785Z,8.40
2017-10-01T00:14:09.508Z,8.85
2017-10-01T00:16:39.241Z,8.15
2017-10-01T00:19:08.999Z,8.80
2017-10-01T00:21:38.761Z,8.43
2017-10-01T00:24:08.525Z,8.15
2017-10-01T00:26:38.285Z,9.68
2017-10-01T00:29:08.049Z,8.15
2017-10-01T00:31:38.317Z,7.37
2017-10-01T00:34:08.098Z,8.43
2017-10-01T00:36:37.873Z,8.73
2017-10-01T00:39:07.643Z,8.98
2017-10-01T00:41:37.368Z,8.35
2017-10-01T00:44:07.140Z,7.75
2017-10-01T00:46:36.882Z,8.95
2017-10-01T00:49:06.623Z,8.18
2017-10-01T00:51:36.026Z,9.80
2017-10-01T00:54:05.609Z,8.88
2017-10-01T00:56:35.025Z,9.55
2017-10-01T00:59:05.011Z,9.00
2017-10-01T01:01:34.786Z,9.05
2017-10-01T01:04:04.518Z,9.70
2017-10-01T01:06:34.282Z,10.50
2017-10-01T01:09:03.276Z,10.23
2017-10-01T01:11:33.037Z,10.68
2017-10-01T01:14:02.794Z,9.20
2017-10-01T01:16:32.553Z,9.00
2017-10-01T01:19:02.344Z,9.65
2017-10-01T01:21:31.766Z,9.50
2017-10-01T01:24:01.067Z,10.45
2017-10-01T01:26:31.124Z,9.75
2017-10-01T01:29:00.569Z,10.27
2017-10-01T01:31:29.988Z,10.23
2017-10-01T01:33:59.765Z,11.20
2017-10-01T01:36:29.177Z,10.52
2017-10-01T01:38:58.945Z,10.05
2017-10-01T01:41:28.750Z,9.50
2017-10-01T01:43:58.534Z,9.20
2017-10-01T01:46:28.281Z,9.93
2017-10-01T01:48:57.684Z,10.15
2017-10-01T01:51:27.819Z,9.73
2017-10-01T01:53:57.210Z,9.35
2017-10-01T01:56:26.986Z,10.02
2017-10-01T01:58:56.196Z,9.35
2017-10-01T02:01:25.592Z,9.80
2017-10-01T02:03:55.336Z,9.43
2017-10-01T02:06:24.581Z,9.55
2017-10-01T02:08:53.978Z,9.70
2017-10-01T02:11:23.705Z,9.80
2017-10-01T02:13:53.099Z,9.70
2017-10-01T02:16:22.834Z,9.90
2017-10-01T02:18:52.421Z,10.90
2017-10-01T02:21:22.150Z,10.05
2017-10-01T02:23:51.942Z,10.20
2017-10-01T02:26:21.704Z,10.43
2017-10-01T02:28:51.149Z,10.50
2017-10-01T02:31:20.927Z,11.52
2017-10-01T02:33:50.685Z,11.68
2017-10-01T02:36:20.466Z,9.88
2017-10-01T02:38:49.870Z,11.30
2017-10-01T02:41:19.647Z,10.02
2017-10-01T02:43:49.514Z,12.27
2017-10-01T02:46:18.960Z,11.82
2017-10-01T02:48:48.724Z,13.60
2017-10-01T02:51:18.622Z,12.10
2017-10-01T02:53:48.026Z,11.50
2017-10-01T02:56:17.846Z,11.93
2017-10-01T02:58:47.271Z,12.00
2017-10-01T03:01:17.071Z,12.37
2017-10-01T03:03:46.858Z,11.15
2017-10-01T03:06:16.724Z,11.57
2017-10-01T03:08:46.457Z,12.70
2017-10-01T03:11:15.861Z,12.30
2017-10-01T03:13:45.493Z,12.98
2017-10-01T03:16:15.473Z,11.77
2017-10-01T03:18:45.280Z,12.20
2017-10-01T03:21:15.404Z,12.77
2017-10-01T03:23:45.153Z,13.95
2017-10-01T03:26:14.946Z,12.93
2017-10-01T03:28:48.880Z,13.02
2017-10-01T03:31:18.636Z,13.18
2017-10-01T03:33:48.388Z,13.07
2017-10-01T03:36:18.164Z,12.88
2017-10-01T03:38:47.414Z,14.23
2017-10-01T03:41:16.801Z,13.05
2017-10-01T03:46:21.674Z,11.55
2017-10-01T03:48:51.084Z,11.85
2017-10-01T03:51:20.336Z,11.32
2017-10-01T03:53:49.749Z,11.20
2017-10-01T03:56:19.188Z,10.88
2017-10-01T03:58:48.618Z,11.12
2017-10-01T04:01:18.384Z,11.68
2017-10-01T04:03:48.141Z,10.50
2017-10-01T04:06:17.913Z,11.30
2017-10-01T04:08:47.667Z,10.32
2017-10-01T04:11:17.412Z,10.95
2017-10-01T04:13:47.172Z,10.85
2017-10-01T04:16:16.786Z,10.98
2017-10-01T04:18:46.529Z,9.65
2017-10-01T04:21:16.104Z,10.65
2017-10-01T04:23:45.684Z,10.30
2017-10-01T04:26:15.454Z,10.30
2017-10-01T04:28:45.199Z,10.52
2017-10-01T04:31:14.977Z,10.10
2017-10-01T04:33:44.772Z,11.43
2017-10-01T04:36:14.582Z,12.23
2017-10-01T04:38:44.355Z,11.25
2017-10-01T04:41:14.835Z,11.90
2017-10-01T04:43:44.622Z,11.57
2017-10-01T04:46:14.392Z,10.52
2017-10-01T04:48:44.245Z,10.65
2017-10-01T04:51:14.035Z,10.55
2017-10-01T04:53:44.016Z,11.20
2017-10-01T04:56:14.402Z,10.90
2017-10-01T04:58:44.237Z,10.43
2017-10-01T05:01:14.018Z,10.95
2017-10-01T05:03:43.811Z,10.65
2017-10-01T05:06:13.579Z,11.60
2017-10-01T05:08:43.377Z,11.27
2017-10-01T05:11:13.178Z,11.80
2017-10-01T05:13:42.978Z,10.93
2017-10-01T05:16:12.914Z,10.48
2017-10-01T05:18:42.749Z,11.23
2017-10-01T05:21:12.494Z,10.82
2017-10-01T05:23:42.215Z,11.63
2017-10-01T05:26:11.837Z,11.20
2017-10-01T05:28:41.688Z,11.68
2017-10-01T05:31:11.494Z,11.75
2017-10-01T05:33:41.301Z,11.57
2017-10-01T05:36:10.816Z,10.13
2017-10-01T05:38:40.686Z,10.50
2017-10-01T05:41:11.378Z,10.63
2017-10-01T05:43:41.211Z,11.07
2017-10-01T05:46:10.972Z,10.88
2017-10-01T05:48:40.857Z,10.57
2017-10-01T05:51:10.675Z,11.12
2017-10-01T05:53:40.271Z,10.43
2017-10-01T05:56:10.035Z,11.38
2017-10-01T05:58:39.840Z,11.15
2017-10-01T06:01:09.735Z,10.90
2017-10-01T06:03:39.609Z,11.00
2017-10-01T06:06:09.361Z,11.75
2017-10-01T06:08:39.132Z,11.77
2017-10-01T06:11:08.929Z,11.07
2017-10-01T06:13:38.712Z,11.07
2017-10-01T06:16:08.585Z,11.90
2017-10-01T06:18:38.581Z,12.18
2017-10-01T06:21:08.324Z,13.65
2017-10-01T06:23:38.110Z,12.27
2017-10-01T06:26:07.891Z,11.50
2017-10-01T06:28:37.717Z,12.50
2017-10-01T06:31:07.472Z,12.32
2017-10-01T06:33:37.365Z,12.77
2017-10-01T06:36:07.216Z,11.98
2017-10-01T06:38:36.956Z,12.60
2017-10-01T06:41:06.900Z,11.38
2017-10-01T06:43:36.740Z,12.13
2017-10-01T06:46:06.564Z,12.55
2017-10-01T06:48:36.421Z,11.93
2017-10-01T06:51:07.386Z,11.18
2017-10-01T06:53:39.240Z,12.13
2017-10-01T06:56:09.297Z,11.80
2017-10-01T06:58:39.284Z,12.82
2017-10-01T07:01:09.226Z,12.90
2017-10-01T07:03:38.996Z,12.95
2017-10-01T07:06:08.709Z,12.60
2017-10-01T07:08:38.279Z,14.13
2017-10-01T07:11:07.966Z,13.40
2017-10-01T07:13:37.441Z,13.57
2017-10-01T07:16:06.896Z,13.33
2017-10-01T07:18:36.377Z,14.70
2017-10-01T07:21:06.270Z,14.00
2017-10-01T07:23:35.777Z,13.90
2017-10-01T07:26:05.464Z,14.80
2017-10-01T07:28:35.222Z,14.70
2017-10-01T07:31:04.717Z,22.43
2017-10-01T07:33:34.553Z,21.77
2017-10-01T07:36:04.109Z,19.10
2017-10-01T07:38:33.568Z,18.80
2017-10-01T07:41:02.716Z,15.77
2017-10-01T07:43:32.530Z,16.83
2017-10-01T07:46:02.076Z,15.43
2017-10-01T07:48:31.388Z,14.10
2017-10-01T07:51:01.012Z,14.50
2017-10-01T07:53:30.596Z,14.77
2017-10-01T07:56:00.062Z,15.17
2017-10-01T07:58:29.604Z,13.67
2017-10-01T08:00:59.152Z,13.57
2017-10-01T08:03:28.642Z,13.30
2017-10-01T08:05:58.112Z,13.03
2017-10-01T08:08:27.777Z,13.93
2017-10-01T08:10:57.369Z,13.17
2017-10-01T08:13:26.862Z,15.60
2017-10-01T08:15:56.435Z,14.87
2017-10-01T08:18:25.952Z,16.50
2017-10-01T08:20:55.494Z,16.67
2017-10-01T08:23:24.974Z,15.40
2017-10-01T08:25:54.420Z,15.60
2017-10-01T08:28:23.907Z,16.47
2017-10-01T08:30:53.378Z,15.90
2017-10-01T08:33:22.840Z,15.40
2017-10-01T08:35:52.317Z,14.37
2017-10-01T08:38:21.961Z,13.97
2017-10-01T08:40:51.939Z,12.00
2017-10-01T08:43:21.466Z,13.10
2017-10-01T08:45:50.962Z,12.50
2017-10-01T08:48:20.423Z,11.37
2017-10-01T08:50:49.900Z,11.43
2017-10-01T08:53:19.369Z,11.87
2017-10-01T08:55:48.651Z,11.13
2017-10-01T08:58:18.108Z,11.40
2017-10-01T09:00:47.597Z,11.37
2017-10-01T09:03:16.902Z,10.93
2017-10-01T09:05:46.550Z,11.07
2017-10-01T09:08:16.070Z,10.60
2017-10-01T09:10:45.543Z,10.37
2017-10-01T09:13:15.017Z,10.20
2017-10-01T09:15:44.504Z,10.30
2017-10-01T09:18:24.876Z,10.20
2017-10-01T09:20:58.215Z,10.47
2017-10-01T09:23:28.009Z,10.40
2017-10-01T09:25:58.196Z,9.93
2017-10-01T09:28:27.889Z,9.80
2017-10-01T09:30:57.743Z,10.93
2017-10-01T09:33:27.194Z,10.67
2017-10-01T09:35:56.699Z,10.00
2017-10-01T09:38:26.215Z,10.13
2017-10-01T09:40:55.746Z,10.17
2017-10-01T09:43:25.208Z,11.70
2017-10-01T09:45:54.686Z,9.77
2017-10-01T09:48:24.151Z,11.03
2017-10-01T09:50:53.633Z,9.90
2017-10-01T09:53:22.907Z,10.30
2017-10-01T09:55:52.413Z,10.13
2017-10-01T09:58:22.152Z,9.37
2017-10-01T10:00:51.594Z,9.90
2017-10-01T10:03:24.934Z,10.27
2017-10-01T10:05:54.417Z,11.33
2017-10-01T10:08:23.881Z,9.93
2017-10-01T10:10:53.357Z,10.30
2017-10-01T10:13:22.813Z,9.17
2017-10-01T10:15:52.294Z,10.50
2017-10-01T10:18:21.750Z,10.97
2017-10-01T10:20:51.218Z,10.97
2017-10-01T10:23:20.676Z,9.23
2017-10-01T10:25:50.134Z,9.83
2017-10-01T10:28:19.636Z,10.50
2017-10-01T10:30:49.091Z,10.40
2017-10-01T10:33:18.571Z,10.37
2017-10-01T10:35:47.864Z,10.23
2017-10-01T10:38:17.332Z,10.60
2017-10-01T10:40:46.776Z,11.20
2017-10-01T10:43:16.353Z,10.00
2017-10-01T10:45:45.834Z,9.40
2017-10-01T10:48:17.180Z,10.90
2017-10-01T10:50:47.024Z,10.00
2017-10-01T10:53:16.629Z,10.37
2017-10-01T10:55:46.104Z,12.53
2017-10-01T10:58:15.611Z,11.13
2017-10-01T11:00:45.062Z,10.00
2017-10-01T11:03:14.695Z,10.43
2017-10-01T11:05:44.243Z,10.17
2017-10-01T11:08:13.689Z,11.93
2017-10-01T11:10:43.309Z,10.77
2017-10-01T11:13:12.692Z,10.80
2017-10-01T11:15:42.585Z,10.90
2017-10-01T11:18:12.743Z,11.80
2017-10-01T11:20:42.280Z,12.27
2017-10-01T11:23:11.834Z,11.90
2017-10-01T11:25:41.135Z,10.90
2017-10-01T11:28:10.597Z,10.80
2017-10-01T11:30:40.084Z,11.40
2017-10-01T11:33:09.547Z,10.17
2017-10-01T11:35:39.251Z,11.37
2017-10-01T11:38:08.872Z,12.57
2017-10-01T11:40:38.333Z,12.87
2017-10-01T11:43:07.900Z,10.77
2017-10-01T11:45:37.517Z,11.00
2017-10-01T11:48:07.464Z,10.40
2017-10-01T11:50:36.975Z,11.60
2017-10-01T11:53:06.446Z,10.17
2017-10-01T11:55:36.064Z,10.83
2017-10-01T11:58:05.551Z,10.33
2017-10-01T12:00:35.025Z,10.23
2017-10-01T12:03:04.418Z,10.10
2017-10-01T12:05:34.176Z,11.97
2017-10-01T12:08:03.668Z,11.33
2017-10-01T12:10:33.133Z,10.50
2017-10-01T12:13:02.609Z,10.60
2017-10-01T12:15:32.346Z,12.20
2017-10-01T12:18:01.991Z,11.97
2017-10-01T12:20:31.488Z,12.50
2017-10-01T12:23:01.198Z,11.97
2017-10-01T12:25:30.685Z,10.13
2017-10-01T12:28:00.746Z,11.10
2017-10-01T12:30:30.713Z,11.63
2017-10-01T12:33:00.251Z,10.63
2017-10-01T12:35:31.536Z,12.63
2017-10-01T12:38:02.410Z,11.00
2017-10-01T12:40:31.990Z,10.97
2017-10-01T12:43:01.623Z,11.80
2017-10-01T12:45:32.521Z,10.63
2017-10-01T12:48:02.446Z,11.60
2017-10-01T12:50:32.629Z,12.00
2017-10-01T12:53:02.910Z,11.57
2017-10-01T12:55:32.185Z,11.63
2017-10-01T12:58:07.546Z,11.50
2017-10-01T13:00:36.502Z,10.93
2017-10-01T13:03:05.633Z,11.30
2017-10-01T13:05:35.141Z,11.40
2017-10-01T13:08:05.621Z,11.73
2017-10-01T13:10:35.094Z,11.63
2017-10-01T13:13:04.572Z,12.17
2017-10-01T13:15:34.981Z,11.67
2017-10-01T13:18:04.816Z,12.20
2017-10-01T13:20:34.544Z,11.50
2017-10-01T13:23:04.652Z,12.03
2017-10-01T13:25:34.191Z,11.80
2017-10-01T13:28:03.705Z,11.57
2017-10-01T13:30:33.381Z,11.57
2017-10-01T13:33:06.959Z,11.83
2017-10-01T13:35:36.747Z,11.20
2017-10-01T13:38:06.973Z,12.13
2017-10-01T13:40:36.479Z,11.97
2017-10-01T13:43:06.299Z,11.47
2017-10-01T13:45:35.804Z,11.77
2017-10-01T13:48:05.292Z,12.87
2017-10-01T13:50:34.741Z,11.67
2017-10-01T13:53:04.207Z,12.00
2017-10-01T13:55:33.715Z,11.50
2017-10-01T13:58:03.219Z,12.40
2017-10-01T14:00:32.667Z,10.90
2017-10-01T14:03:02.153Z,11.97
2017-10-01T14:05:52.113Z,12.23
2017-10-01T14:08:21.645Z,11.40
2017-10-01T14:10:51.111Z,11.13
2017-10-01T14:13:20.577Z,10.67
2017-10-01T14:15:50.346Z,11.80
2017-10-01T14:18:19.821Z,11.30
2017-10-01T14:20:50.236Z,10.30
2017-10-01T14:23:19.721Z,10.63
2017-10-01T14:25:49.174Z,10.90
2017-10-01T14:28:18.649Z,11.60
2017-10-01T14:30:53.685Z,10.83
2017-10-01T14:33:23.149Z,12.57
2017-10-01T14:35:52.870Z,11.93
2017-10-01T14:38:22.390Z,11.47
2017-10-01T14:40:51.862Z,10.67
2017-10-01T14:43:21.328Z,10.70
2017-10-01T14:45:50.785Z,11.70
2017-10-01T14:48:20.264Z,11.90
2017-10-01T14:50:49.765Z,11.60
2017-10-01T14:53:19.269Z,11.90
2017-10-01T14:55:48.820Z,12.30
2017-10-01T14:58:18.280Z,11.57
2017-10-01T15:00:47.788Z,10.90
2017-10-01T15:03:17.999Z,11.30
2017-10-01T15:05:47.486Z,11.03
2017-10-01T15:08:17.143Z,10.63
2017-10-01T15:10:46.688Z,10.73
2017-10-01T15:13:16.353Z,9.27
2017-10-01T15:15:45.839Z,11.30
2017-10-01T15:18:15.303Z,10.43
2017-10-01T15:20:44.790Z,8.37
2017-10-01T15:23:14.253Z,9.80
2017-10-01T15:25:43.789Z,10.07
2017-10-01T15:28:13.324Z,9.80
2017-10-01T15:30:43.000Z,10.10
2017-10-01T15:33:12.494Z,9.33
2017-10-01T15:35:42.540Z,9.33
2017-10-01T15:38:12.002Z,8.87
2017-10-01T15:40:41.609Z,9.60
2017-10-01T15:43:11.301Z,10.00
2017-10-01T15:45:41.000Z,8.70
2017-10-01T15:48:10.584Z,9.20
2017-10-01T15:50:39.758Z,9.17
2017-10-01T15:53:10.851Z,9.57
2017-10-01T15:55:41.713Z,9.93
2017-10-01T15:58:12.089Z,9.50
2017-10-01T16:00:42.322Z,9.40
2017-10-01T16:03:12.600Z,9.33
2017-10-01T16:05:44.511Z,10.60
2017-10-01T16:08:15.505Z,9.30
2017-10-01T16:10:46.857Z,9.67
2017-10-01T16:13:17.138Z,10.00
2017-10-01T16:15:47.265Z,11.03
2017-10-01T16:18:18.576Z,10.30
2017-10-01T16:20:49.148Z,9.43
2017-10-01T16:23:19.349Z,10.70
2017-10-01T16:25:49.198Z,10.93
2017-10-01T16:28:18.775Z,9.90
2017-10-01T16:30:48.297Z,9.87
2017-10-01T16:33:17.737Z,10.03
2017-10-01T16:35:47.254Z,9.83
2017-10-01T16:38:16.747Z,10.43
2017-10-01T16:40:46.340Z,9.50
2017-10-01T16:43:16.081Z,12.70
2017-10-01T16:45:46.101Z,14.97
2017-10-01T16:48:16.473Z,12.17
2017-10-01T16:50:45.932Z,13.37
2017-10-01T16:53:15.672Z,18.52
2017-10-01T16:55:45.166Z,30.37
2017-10-01T16:58:14.833Z,21.07
2017-10-01T17:00:44.586Z,25.57
2017-10-01T17:03:17.202Z,27.10
2017-10-01T17:05:46.692Z,38.37
2017-10-01T17:08:16.152Z,21.27
2017-10-01T17:10:45.689Z,13.73
2017-10-01T17:13:16.074Z,14.53
2017-10-01T17:15:46.311Z,63.33
2017-10-01T17:18:15.784Z,32.27
2017-10-01T17:20:45.281Z,15.83
2017-10-01T17:23:14.767Z,14.80
2017-10-01T17:25:44.516Z,35.00
2017-10-01T17:28:14.273Z,25.98
2017-10-01T17:30:44.028Z,19.95
2017-10-01T17:33:13.796Z,15.45
2017-10-01T17:35:43.605Z,15.35
2017-10-01T17:38:13.447Z,13.68
2017-10-01T17:40:43.295Z,14.52
2017-10-01T17:43:13.050Z,14.57
2017-10-01T17:45:42.785Z,13.88
2017-10-01T17:48:12.426Z,15.13
2017-10-01T17:50:42.190Z,13.32
2017-10-01T17:53:11.981Z,14.07
2017-10-01T17:55:41.773Z,16.02
2017-10-01T17:58:11.685Z,15.05
2017-10-01T18:00:41.489Z,16.12
2017-10-01T18:03:11.262Z,14.68
2017-10-01T18:05:41.043Z,15.50
2017-10-01T18:08:11.571Z,15.45
2017-10-01T18:10:41.452Z,16.55
2017-10-01T18:13:11.297Z,17.42
2017-10-01T18:15:41.065Z,16.27
2017-10-01T18:18:10.903Z,17.05
2017-10-01T18:20:40.653Z,17.83
2017-10-01T18:23:10.445Z,19.02
2017-10-01T18:25:40.239Z,17.65
2017-10-01T18:28:09.985Z,18.25
2017-10-01T18:30:39.752Z,16.80
2017-10-01T18:33:09.560Z,16.42
2017-10-01T18:35:39.419Z,17.73
2017-10-01T18:38:09.216Z,17.80
2017-10-01T18:40:39.008Z,20.33
2017-10-01T18:43:08.769Z,20.05
2017-10-01T18:45:38.532Z,18.05
2017-10-01T18:48:08.471Z,18.08
2017-10-01T18:50:38.215Z,17.17
2017-10-01T18:53:07.972Z,17.40
2017-10-01T18:55:38.045Z,18.02
2017-10-01T18:58:07.716Z,15.68
2017-10-01T19:00:37.525Z,16.70
2017-10-01T19:03:07.316Z,18.15
2017-10-01T19:05:37.092Z,16.55
2017-10-01T19:08:06.844Z,15.82
2017-10-01T19:10:36.673Z,16.30
2017-10-01T19:13:06.488Z,16.60
2017-10-01T19:15:38.021Z,17.62
2017-10-01T19:18:08.356Z,17.77
2017-10-01T19:20:38.210Z,16.90
2017-10-01T19:23:07.983Z,17.95
2017-10-01T19:25:37.843Z,17.10
2017-10-01T19:28:07.588Z,17.33
2017-10-01T19:30:37.365Z,16.55
2017-10-01T19:33:07.138Z,17.55
2017-10-01T19:35:36.946Z,18.40
2017-10-01T19:38:06.688Z,18.02
2017-10-01T19:40:40.141Z,18.12
2017-10-01T19:43:09.945Z,17.95
2017-10-01T19:45:39.699Z,17.45
2017-10-01T19:48:09.441Z,18.50
2017-10-01T19:50:39.256Z,17.02
2017-10-01T19:53:13.614Z,16.02
2017-10-01T19:55:44.463Z,16.52
2017-10-01T19:58:14.308Z,16.05
2017-10-01T20:00:43.842Z,17.05
2017-10-01T20:03:13.075Z,15.52
2017-10-01T20:05:42.983Z,17.02
2017-10-01T20:08:13.028Z,16.08
2017-10-01T20:10:42.814Z,17.52
2017-10-01T20:13:12.582Z,15.48
2017-10-01T20:15:42.264Z,15.23
2017-10-01T20:18:13.067Z,16.17
2017-10-01T20:20:42.909Z,15.35
2017-10-01T20:23:14.004Z,17.58
2017-10-01T20:25:44.783Z,16.73
2017-10-01T20:28:14.580Z,14.30
2017-10-01T20:30:46.778Z,16.05
2017-10-01T20:33:17.492Z,15.73
2017-10-01T20:35:47.410Z,15.40
2017-10-01T20:38:17.292Z,14.60
2017-10-01T20:40:47.472Z,14.98
2017-10-01T20:43:18.062Z,14.52
2017-10-01T20:45:48.596Z,15.15
2017-10-01T20:48:18.731Z,14.48
2017-10-01T20:50:48.557Z,14.75
2017-10-01T20:53:18.349Z,14.50
2017-10-01T20:55:48.124Z,14.90
2017-10-01T20:58:17.923Z,15.13
2017-10-01T21:00:47.764Z,16.05
2017-10-01T21:03:17.550Z,17.00
2017-10-01T21:05:47.524Z,16.02
2017-10-01T21:08:17.342Z,14.70
2017-10-01T21:10:46.784Z,14.95
2017-10-01T21:13:16.426Z,15.13
2017-10-01T21:15:46.237Z,15.13
2017-10-01T21:18:16.044Z,15.15
2017-10-01T21:20:45.677Z,14.50
2017-10-01T21:23:15.472Z,15.75
2017-10-01T21:25:49.638Z,16.17
2017-10-01T21:28:19.415Z,15.55
2017-10-01T21:30:49.238Z,14.52
2017-10-01T21:33:19.033Z,14.73
2017-10-01T21:35:48.811Z,15.05
2017-10-01T21:38:18.553Z,15.13
2017-10-01T21:40:52.541Z,15.75
2017-10-01T21:43:22.505Z,14.95
2017-10-01T21:45:52.643Z,15.85
2017-10-01T21:48:22.393Z,16.52
2017-10-01T21:50:52.158Z,16.90
2017-10-01T21:53:21.926Z,16.75
2017-10-01T21:55:51.685Z,17.35
2017-10-01T21:58:22.330Z,18.02
2017-10-01T22:00:52.113Z,18.05
2017-10-01T22:03:21.972Z,20.23
2017-10-01T22:05:52.709Z,20.15
2017-10-01T22:08:22.452Z,18.40
2017-10-01T22:10:52.246Z,17.40
2017-10-01T22:13:22.012Z,20.60
2017-10-01T22:15:51.758Z,19.67
2017-10-01T22:18:21.540Z,20.00
2017-10-01T22:20:51.576Z,19.83
2017-10-01T22:23:21.447Z,19.55
2017-10-01T22:25:51.248Z,20.65
2017-10-01T22:28:21.002Z,20.60
2017-10-01T22:30:50.747Z,20.12
2017-10-01T22:33:20.523Z,20.62
2017-10-01T22:35:50.396Z,20.08
2017-10-01T22:38:20.162Z,19.35
2017-10-01T22:40:49.908Z,20.37
2017-10-01T22:43:19.689Z,21.23
2017-10-01T22:45:49.808Z,21.60
2017-10-01T22:48:19.581Z,21.10
2017-10-01T22:50:50.215Z,20.95
2017-10-01T22:53:19.963Z,19.90
2017-10-01T22:55:53.842Z,22.15
2017-10-01T22:58:23.621Z,21.25
2017-10-01T23:00:53.458Z,19.52
2017-10-01T23:03:23.282Z,21.83
2017-10-01T23:05:53.737Z,20.33
2017-10-01T23:08:23.522Z,20.05
2017-10-01T23:10:53.285Z,20.23
2017-10-01T23:13:23.035Z,19.73
2017-10-01T23:15:52.802Z,18.80
2017-10-01T23:18:22.567Z,18.00
2017-10-01T23:20:52.334Z,20.08
2017-10-01T23:23:22.084Z,20.60
2017-10-01T23:25:51.853Z,21.40
2017-10-01T23:28:21.616Z,19.80
2017-10-01T23:30:51.364Z,21.40
2017-10-01T23:33:21.140Z,21.45
2017-10-01T23:35:50.903Z,23.02
2017-10-01T23:38:20.656Z,20.88
2017-10-01T23:40:50.460Z,23.90
2017-10-01T23:43:20.233Z,25.17
2017-10-01T23:45:50.032Z,25.10
2017-10-01T23:48:19.822Z,22.90
2017-10-01T23:50:49.569Z,22.42
2017-10-01T23:53:19.362Z,24.15
2017-10-01T23:55:48.931Z,25.00
2017-10-01T23:58:18.702Z,24.45
